sensor_id;sensor_type;location;lat;lon;timestamp;P1;durP1;ratioP1;P2;durP2;ratioP2
76608;SDS011;65928;53.936;27.540;2023-12-07T00:01:19;17.65;;;11.77;;
76608;SDS011;65928;53.936;27.540;2023-12-07T00:03:45;19.60;;;12.55;;
76608;SDS011;65928;53.936;27.540;2023-12-07T00:06:10;18.77;;;12.20;;
76608;SDS011;65928;53.936;27.540;2023-12-07T00:08:36;20.88;;;12.32;;
76608;SDS011;65928;53.936;27.540;2023-12-07T00:11:01;18.35;;;12.63;;
76608;SDS011;65928;53.936;27.540;2023-12-07T00:13:27;20.38;;;13.43;;
76608;SDS011;65928;53.936;27.540;2023-12-07T00:15:52;21.65;;;13.60;;
76608;SDS011;65928;53.936;27.540;2023-12-07T00:18:18;20.58;;;12.85;;
76608;SDS011;65928;53.936;27.540;2023-12-07T00:20:44;27.30;;;14.43;;
76608;SDS011;65928;53.936;27.540;2023-12-07T00:23:10;21.25;;;12.45;;
76608;SDS011;65928;53.936;27.540;2023-12-07T00:25:36;11.45;;;6.95;;
76608;SDS011;65928;53.936;27.540;2023-12-07T00:28:02;22.90;;;12.18;;
76608;SDS011;65928;53.936;27.540;2023-12-07T00:30:28;20.50;;;11.82;;
76608;SDS011;65928;53.936;27.540;2023-12-07T00:32:54;24.23;;;12.90;;
76608;SDS011;65928;53.936;27.540;2023-12-07T00:35:20;19.20;;;10.85;;
76608;SDS011;65928;53.936;27.540;2023-12-07T00:37:47;20.05;;;12.23;;
76608;SDS011;65928;53.936;27.540;2023-12-07T00:40:13;14.25;;;10.32;;
76608;SDS011;65928;53.936;27.540;2023-12-07T00:42:39;20.65;;;12.60;;
76608;SDS011;65928;53.936;27.540;2023-12-07T00:45:05;26.45;;;13.10;;
76608;SDS011;65928;53.936;27.540;2023-12-07T00:47:31;26.73;;;13.43;;
76608;SDS011;65928;53.936;27.540;2023-12-07T00:49:56;21.05;;;12.55;;
76608;SDS011;65928;53.936;27.540;2023-12-07T00:52:22;23.48;;;13.30;;
76608;SDS011;65928;53.936;27.540;2023-12-07T00:54:47;18.88;;;11.40;;
76608;SDS011;65928;53.936;27.540;2023-12-07T00:57:13;16.52;;;9.85;;
76608;SDS011;65928;53.936;27.540;2023-12-07T00:59:38;19.50;;;10.40;;
76608;SDS011;65928;53.936;27.540;2023-12-07T01:02:04;20.63;;;10.55;;
76608;SDS011;65928;53.936;27.540;2023-12-07T01:04:30;15.85;;;10.30;;
76608;SDS011;65928;53.936;27.540;2023-12-07T01:06:56;19.20;;;11.05;;
76608;SDS011;65928;53.936;27.540;2023-12-07T01:09:22;27.42;;;13.68;;
76608;SDS011;65928;53.936;27.540;2023-12-07T01:11:48;18.77;;;10.35;;
76608;SDS011;65928;53.936;27.540;2023-12-07T01:14:14;20.02;;;10.98;;
76608;SDS011;65928;53.936;27.540;2023-12-07T01:16:39;16.05;;;9.10;;
76608;SDS011;65928;53.936;27.540;2023-12-07T01:19:05;18.20;;;11.35;;
76608;SDS011;65928;53.936;27.540;2023-12-07T01:21:32;18.65;;;10.60;;
76608;SDS011;65928;53.936;27.540;2023-12-07T01:23:58;18.70;;;10.60;;
76608;SDS011;65928;53.936;27.540;2023-12-07T01:26:24;20.15;;;10.80;;
76608;SDS011;65928;53.936;27.540;2023-12-07T01:28:50;21.73;;;12.43;;
76608;SDS011;65928;53.936;27.540;2023-12-07T01:31:15;23.65;;;11.70;;
76608;SDS011;65928;53.936;27.540;2023-12-07T01:33:42;20.83;;;12.98;;
76608;SDS011;65928;53.936;27.540;2023-12-07T01:36:08;20.67;;;10.35;;
76608;SDS011;65928;53.936;27.540;2023-12-07T01:38:33;21.42;;;11.90;;
76608;SDS011;65928;53.936;27.540;2023-12-07T01:40:59;19.90;;;10.15;;
76608;SDS011;65928;53.936;27.540;2023-12-07T01:43:25;18.52;;;10.68;;
76608;SDS011;65928;53.936;27.540;2023-12-07T01:45:50;17.17;;;10.48;;
76608;SDS011;65928;53.936;27.540;2023-12-07T01:48:19;22.08;;;11.43;;
76608;SDS011;65928;53.936;27.540;2023-12-07T01:50:46;19.00;;;9.95;;
76608;SDS011;65928;53.936;27.540;2023-12-07T01:53:12;15.45;;;9.57;;
76608;SDS011;65928;53.936;27.540;2023-12-07T01:55:40;8.40;;;6.93;;
76608;SDS011;65928;53.936;27.540;2023-12-07T01:58:07;17.75;;;10.13;;
76608;SDS011;65928;53.936;27.540;2023-12-07T02:00:33;13.88;;;9.50;;
76608;SDS011;65928;53.936;27.540;2023-12-07T02:02:59;18.17;;;11.48;;
76608;SDS011;65928;53.936;27.540;2023-12-07T02:05:27;21.65;;;12.23;;
76608;SDS011;65928;53.936;27.540;2023-12-07T02:07:54;21.73;;;11.88;;
76608;SDS011;65928;53.936;27.540;2023-12-07T02:10:19;15.77;;;9.93;;
76608;SDS011;65928;53.936;27.540;2023-12-07T02:12:45;21.35;;;10.48;;
76608;SDS011;65928;53.936;27.540;2023-12-07T02:15:12;17.08;;;10.52;;
76608;SDS011;65928;53.936;27.540;2023-12-07T02:20:45;20.15;;;10.90;;
76608;SDS011;65928;53.936;27.540;2023-12-07T02:23:17;12.20;;;7.35;;
76608;SDS011;65928;53.936;27.540;2023-12-07T02:29:02;20.48;;;10.98;;
76608;SDS011;65928;53.936;27.540;2023-12-07T02:31:28;16.70;;;10.30;;
76608;SDS011;65928;53.936;27.540;2023-12-07T02:33:55;19.27;;;10.40;;
76608;SDS011;65928;53.936;27.540;2023-12-07T02:36:22;22.50;;;11.82;;
76608;SDS011;65928;53.936;27.540;2023-12-07T02:38:52;22.58;;;12.45;;
76608;SDS011;65928;53.936;27.540;2023-12-07T02:41:23;18.95;;;10.63;;
76608;SDS011;65928;53.936;27.540;2023-12-07T02:43:50;18.52;;;11.25;;
76608;SDS011;65928;53.936;27.540;2023-12-07T02:46:17;17.50;;;8.90;;
76608;SDS011;65928;53.936;27.540;2023-12-07T02:48:43;17.33;;;9.80;;
76608;SDS011;65928;53.936;27.540;2023-12-07T02:51:08;22.77;;;11.07;;
76608;SDS011;65928;53.936;27.540;2023-12-07T02:53:34;20.42;;;11.82;;
76608;SDS011;65928;53.936;27.540;2023-12-07T02:55:59;21.38;;;10.75;;
76608;SDS011;65928;53.936;27.540;2023-12-07T02:58:25;16.92;;;10.27;;
76608;SDS011;65928;53.936;27.540;2023-12-07T03:00:50;21.15;;;12.30;;
76608;SDS011;65928;53.936;27.540;2023-12-07T03:03:16;14.35;;;9.25;;
76608;SDS011;65928;53.936;27.540;2023-12-07T03:05:42;20.77;;;11.43;;
76608;SDS011;65928;53.936;27.540;2023-12-07T03:08:07;16.90;;;9.38;;
76608;SDS011;65928;53.936;27.540;2023-12-07T03:10:33;21.17;;;12.05;;
76608;SDS011;65928;53.936;27.540;2023-12-07T03:12:58;23.67;;;12.38;;
76608;SDS011;65928;53.936;27.540;2023-12-07T03:15:24;20.50;;;11.50;;
76608;SDS011;65928;53.936;27.540;2023-12-07T03:17:50;19.85;;;10.90;;
76608;SDS011;65928;53.936;27.540;2023-12-07T03:20:15;19.90;;;11.13;;
76608;SDS011;65928;53.936;27.540;2023-12-07T03:22:42;19.05;;;10.13;;
76608;SDS011;65928;53.936;27.540;2023-12-07T03:25:07;23.80;;;12.45;;
76608;SDS011;65928;53.936;27.540;2023-12-07T03:27:33;21.20;;;12.15;;
76608;SDS011;65928;53.936;27.540;2023-12-07T03:29:58;22.35;;;12.93;;
76608;SDS011;65928;53.936;27.540;2023-12-07T03:32:24;16.65;;;9.93;;
76608;SDS011;65928;53.936;27.540;2023-12-07T03:34:49;19.17;;;11.60;;
76608;SDS011;65928;53.936;27.540;2023-12-07T03:37:15;19.05;;;11.95;;
76608;SDS011;65928;53.936;27.540;2023-12-07T03:39:40;19.30;;;9.88;;
76608;SDS011;65928;53.936;27.540;2023-12-07T03:42:06;18.98;;;10.48;;
76608;SDS011;65928;53.936;27.540;2023-12-07T03:44:32;20.85;;;12.18;;
76608;SDS011;65928;53.936;27.540;2023-12-07T03:46:57;21.63;;;12.20;;
76608;SDS011;65928;53.936;27.540;2023-12-07T03:49:23;22.38;;;12.90;;
76608;SDS011;65928;53.936;27.540;2023-12-07T03:51:48;22.23;;;11.55;;
76608;SDS011;65928;53.936;27.540;2023-12-07T03:54:14;21.73;;;12.93;;
76608;SDS011;65928;53.936;27.540;2023-12-07T03:56:39;19.92;;;12.93;;
76608;SDS011;65928;53.936;27.540;2023-12-07T03:59:06;20.10;;;12.65;;
76608;SDS011;65928;53.936;27.540;2023-12-07T04:01:31;22.40;;;15.00;;
76608;SDS011;65928;53.936;27.540;2023-12-07T04:03:57;16.70;;;11.00;;
76608;SDS011;65928;53.936;27.540;2023-12-07T04:06:24;24.48;;;14.00;;
76608;SDS011;65928;53.936;27.540;2023-12-07T04:08:50;20.67;;;14.82;;
76608;SDS011;65928;53.936;27.540;2023-12-07T04:11:15;19.77;;;10.77;;
76608;SDS011;65928;53.936;27.540;2023-12-07T04:13:41;22.77;;;11.35;;
76608;SDS011;65928;53.936;27.540;2023-12-07T04:16:07;20.65;;;11.80;;
76608;SDS011;65928;53.936;27.540;2023-12-07T04:18:33;17.83;;;10.20;;
76608;SDS011;65928;53.936;27.540;2023-12-07T04:20:59;20.67;;;12.57;;
76608;SDS011;65928;53.936;27.540;2023-12-07T04:23:25;24.70;;;13.98;;
76608;SDS011;65928;53.936;27.540;2023-12-07T04:25:50;23.23;;;13.68;;
76608;SDS011;65928;53.936;27.540;2023-12-07T04:28:16;23.85;;;14.63;;
76608;SDS011;65928;53.936;27.540;2023-12-07T04:30:42;22.70;;;13.82;;
76608;SDS011;65928;53.936;27.540;2023-12-07T04:33:07;20.27;;;11.10;;
76608;SDS011;65928;53.936;27.540;2023-12-07T04:35:33;25.20;;;14.45;;
76608;SDS011;65928;53.936;27.540;2023-12-07T04:37:59;26.90;;;14.00;;
76608;SDS011;65928;53.936;27.540;2023-12-07T04:40:25;21.58;;;13.13;;
76608;SDS011;65928;53.936;27.540;2023-12-07T04:42:50;24.58;;;13.20;;
76608;SDS011;65928;53.936;27.540;2023-12-07T04:45:16;26.13;;;15.35;;
76608;SDS011;65928;53.936;27.540;2023-12-07T04:47:42;23.40;;;13.00;;
76608;SDS011;65928;53.936;27.540;2023-12-07T04:50:08;25.95;;;15.48;;
76608;SDS011;65928;53.936;27.540;2023-12-07T04:52:37;24.00;;;13.63;;
76608;SDS011;65928;53.936;27.540;2023-12-07T04:55:03;26.02;;;13.45;;
76608;SDS011;65928;53.936;27.540;2023-12-07T04:57:33;18.50;;;12.07;;
76608;SDS011;65928;53.936;27.540;2023-12-07T04:59:59;26.60;;;14.70;;
76608;SDS011;65928;53.936;27.540;2023-12-07T05:02:25;19.88;;;10.95;;
76608;SDS011;65928;53.936;27.540;2023-12-07T05:04:54;26.55;;;11.18;;
76608;SDS011;65928;53.936;27.540;2023-12-07T05:07:19;21.80;;;13.70;;
76608;SDS011;65928;53.936;27.540;2023-12-07T05:09:45;16.35;;;10.70;;
76608;SDS011;65928;53.936;27.540;2023-12-07T05:12:12;22.65;;;13.70;;
76608;SDS011;65928;53.936;27.540;2023-12-07T05:14:37;26.73;;;13.15;;
76608;SDS011;65928;53.936;27.540;2023-12-07T05:17:03;25.40;;;13.43;;
76608;SDS011;65928;53.936;27.540;2023-12-07T05:19:30;32.83;;;15.45;;
76608;SDS011;65928;53.936;27.540;2023-12-07T05:21:55;34.60;;;17.20;;
76608;SDS011;65928;53.936;27.540;2023-12-07T05:24:21;24.75;;;14.27;;
76608;SDS011;65928;53.936;27.540;2023-12-07T05:26:47;26.27;;;15.77;;
76608;SDS011;65928;53.936;27.540;2023-12-07T05:29:13;24.88;;;14.38;;
76608;SDS011;65928;53.936;27.540;2023-12-07T05:31:39;24.13;;;14.10;;
76608;SDS011;65928;53.936;27.540;2023-12-07T05:34:06;31.75;;;16.73;;
76608;SDS011;65928;53.936;27.540;2023-12-07T05:36:33;30.58;;;16.17;;
76608;SDS011;65928;53.936;27.540;2023-12-07T05:38:59;22.65;;;11.73;;
76608;SDS011;65928;53.936;27.540;2023-12-07T05:41:24;22.58;;;13.50;;
76608;SDS011;65928;53.936;27.540;2023-12-07T05:43:50;27.35;;;14.93;;
76608;SDS011;65928;53.936;27.540;2023-12-07T05:46:19;31.92;;;17.15;;
76608;SDS011;65928;53.936;27.540;2023-12-07T05:48:45;26.75;;;15.95;;
76608;SDS011;65928;53.936;27.540;2023-12-07T05:51:14;26.25;;;15.00;;
76608;SDS011;65928;53.936;27.540;2023-12-07T05:53:41;27.98;;;15.02;;
76608;SDS011;65928;53.936;27.540;2023-12-07T05:56:08;28.83;;;16.13;;
76608;SDS011;65928;53.936;27.540;2023-12-07T05:58:34;28.98;;;15.30;;
76608;SDS011;65928;53.936;27.540;2023-12-07T06:01:00;30.75;;;17.58;;
76608;SDS011;65928;53.936;27.540;2023-12-07T06:03:27;29.02;;;15.88;;
76608;SDS011;65928;53.936;27.540;2023-12-07T06:05:53;26.15;;;15.50;;
76608;SDS011;65928;53.936;27.540;2023-12-07T06:08:18;24.85;;;14.73;;
76608;SDS011;65928;53.936;27.540;2023-12-07T06:10:44;25.40;;;14.75;;
76608;SDS011;65928;53.936;27.540;2023-12-07T06:13:10;29.00;;;14.73;;
76608;SDS011;65928;53.936;27.540;2023-12-07T06:15:37;28.25;;;16.45;;
76608;SDS011;65928;53.936;27.540;2023-12-07T06:18:03;31.52;;;15.48;;
76608;SDS011;65928;53.936;27.540;2023-12-07T06:20:28;26.65;;;14.57;;
76608;SDS011;65928;53.936;27.540;2023-12-07T06:22:55;19.10;;;13.60;;
76608;SDS011;65928;53.936;27.540;2023-12-07T06:25:21;27.05;;;16.13;;
76608;SDS011;65928;53.936;27.540;2023-12-07T06:27:47;20.33;;;13.90;;
76608;SDS011;65928;53.936;27.540;2023-12-07T06:30:12;13.70;;;8.43;;
76608;SDS011;65928;53.936;27.540;2023-12-07T06:32:38;31.42;;;15.88;;
76608;SDS011;65928;53.936;27.540;2023-12-07T06:35:04;29.50;;;15.15;;
76608;SDS011;65928;53.936;27.540;2023-12-07T06:37:30;30.77;;;17.13;;
76608;SDS011;65928;53.936;27.540;2023-12-07T06:39:56;27.67;;;16.83;;
76608;SDS011;65928;53.936;27.540;2023-12-07T06:42:24;25.73;;;15.05;;
76608;SDS011;65928;53.936;27.540;2023-12-07T06:44:49;27.50;;;16.33;;
76608;SDS011;65928;53.936;27.540;2023-12-07T06:47:15;34.25;;;14.90;;
76608;SDS011;65928;53.936;27.540;2023-12-07T06:49:41;28.33;;;15.63;;
76608;SDS011;65928;53.936;27.540;2023-12-07T06:52:06;22.55;;;13.18;;
76608;SDS011;65928;53.936;27.540;2023-12-07T06:54:32;28.52;;;15.25;;
76608;SDS011;65928;53.936;27.540;2023-12-07T06:56:59;29.92;;;14.90;;
76608;SDS011;65928;53.936;27.540;2023-12-07T06:59:26;26.25;;;13.18;;
76608;SDS011;65928;53.936;27.540;2023-12-07T07:01:52;25.63;;;14.07;;
76608;SDS011;65928;53.936;27.540;2023-12-07T07:04:17;25.85;;;13.75;;
76608;SDS011;65928;53.936;27.540;2023-12-07T07:06:43;27.38;;;12.70;;
76608;SDS011;65928;53.936;27.540;2023-12-07T07:09:09;23.63;;;13.35;;
76608;SDS011;65928;53.936;27.540;2023-12-07T07:11:37;30.10;;;15.15;;
76608;SDS011;65928;53.936;27.540;2023-12-07T07:14:03;26.60;;;13.98;;
76608;SDS011;65928;53.936;27.540;2023-12-07T07:16:29;27.15;;;14.68;;
76608;SDS011;65928;53.936;27.540;2023-12-07T07:18:55;19.17;;;13.00;;
76608;SDS011;65928;53.936;27.540;2023-12-07T07:21:24;27.15;;;13.57;;
76608;SDS011;65928;53.936;27.540;2023-12-07T07:23:49;27.50;;;14.45;;
76608;SDS011;65928;53.936;27.540;2023-12-07T07:26:16;28.10;;;14.80;;
76608;SDS011;65928;53.936;27.540;2023-12-07T07:28:43;23.73;;;13.93;;
76608;SDS011;65928;53.936;27.540;2023-12-07T07:31:08;16.77;;;10.00;;
76608;SDS011;65928;53.936;27.540;2023-12-07T07:33:35;25.92;;;13.27;;
76608;SDS011;65928;53.936;27.540;2023-12-07T07:36:03;26.13;;;14.25;;
76608;SDS011;65928;53.936;27.540;2023-12-07T07:38:30;23.40;;;13.20;;
76608;SDS011;65928;53.936;27.540;2023-12-07T07:40:55;22.75;;;12.85;;
76608;SDS011;65928;53.936;27.540;2023-12-07T07:43:22;21.13;;;12.88;;
76608;SDS011;65928;53.936;27.540;2023-12-07T07:45:50;23.73;;;13.20;;
76608;SDS011;65928;53.936;27.540;2023-12-07T07:48:16;21.33;;;12.18;;
76608;SDS011;65928;53.936;27.540;2023-12-07T07:50:41;21.77;;;13.60;;
76608;SDS011;65928;53.936;27.540;2023-12-07T07:53:07;25.42;;;14.70;;
76608;SDS011;65928;53.936;27.540;2023-12-07T07:55:33;24.00;;;14.50;;
76608;SDS011;65928;53.936;27.540;2023-12-07T07:57:58;27.58;;;14.13;;
76608;SDS011;65928;53.936;27.540;2023-12-07T08:00:24;19.40;;;11.52;;
76608;SDS011;65928;53.936;27.540;2023-12-07T08:02:53;21.60;;;12.70;;
76608;SDS011;65928;53.936;27.540;2023-12-07T08:05:36;20.88;;;14.48;;
76608;SDS011;65928;53.936;27.540;2023-12-07T08:08:14;22.63;;;12.57;;
76608;SDS011;65928;53.936;27.540;2023-12-07T08:10:39;24.45;;;14.80;;
76608;SDS011;65928;53.936;27.540;2023-12-07T08:13:05;28.48;;;14.82;;
76608;SDS011;65928;53.936;27.540;2023-12-07T08:15:33;20.48;;;12.82;;
76608;SDS011;65928;53.936;27.540;2023-12-07T08:17:59;23.40;;;13.57;;
76608;SDS011;65928;53.936;27.540;2023-12-07T08:20:24;22.30;;;12.75;;
76608;SDS011;65928;53.936;27.540;2023-12-07T08:22:50;21.98;;;13.63;;
76608;SDS011;65928;53.936;27.540;2023-12-07T08:25:15;21.90;;;12.63;;
76608;SDS011;65928;53.936;27.540;2023-12-07T08:27:42;22.27;;;13.73;;
76608;SDS011;65928;53.936;27.540;2023-12-07T08:30:11;22.63;;;13.25;;
76608;SDS011;65928;53.936;27.540;2023-12-07T08:32:37;23.75;;;11.75;;
76608;SDS011;65928;53.936;27.540;2023-12-07T08:35:04;17.58;;;10.38;;
76608;SDS011;65928;53.936;27.540;2023-12-07T08:37:33;19.50;;;12.38;;
76608;SDS011;65928;53.936;27.540;2023-12-07T08:39:59;21.60;;;12.50;;
76608;SDS011;65928;53.936;27.540;2023-12-07T08:42:25;20.05;;;12.13;;
76608;SDS011;65928;53.936;27.540;2023-12-07T08:44:52;18.23;;;11.43;;
76608;SDS011;65928;53.936;27.540;2023-12-07T08:47:18;19.80;;;11.98;;
76608;SDS011;65928;53.936;27.540;2023-12-07T08:49:44;16.88;;;9.88;;
76608;SDS011;65928;53.936;27.540;2023-12-07T08:52:09;13.73;;;8.57;;
76608;SDS011;65928;53.936;27.540;2023-12-07T08:54:35;16.40;;;11.10;;
76608;SDS011;65928;53.936;27.540;2023-12-07T08:57:01;21.42;;;12.32;;
76608;SDS011;65928;53.936;27.540;2023-12-07T08:59:29;17.05;;;10.48;;
76608;SDS011;65928;53.936;27.540;2023-12-07T09:01:55;17.50;;;10.65;;
76608;SDS011;65928;53.936;27.540;2023-12-07T09:04:21;16.45;;;9.55;;
76608;SDS011;65928;53.936;27.540;2023-12-07T09:06:46;19.55;;;10.65;;
76608;SDS011;65928;53.936;27.540;2023-12-07T09:09:12;14.05;;;8.13;;
76608;SDS011;65928;53.936;27.540;2023-12-07T09:11:37;21.85;;;11.15;;
76608;SDS011;65928;53.936;27.540;2023-12-07T09:14:03;20.20;;;11.43;;
76608;SDS011;65928;53.936;27.540;2023-12-07T09:16:29;20.52;;;12.13;;
76608;SDS011;65928;53.936;27.540;2023-12-07T09:18:54;23.63;;;12.07;;
76608;SDS011;65928;53.936;27.540;2023-12-07T09:21:21;25.15;;;12.60;;
76608;SDS011;65928;53.936;27.540;2023-12-07T09:23:46;21.67;;;11.32;;
76608;SDS011;65928;53.936;27.540;2023-12-07T09:26:12;14.85;;;9.77;;
76608;SDS011;65928;53.936;27.540;2023-12-07T09:28:37;20.00;;;11.27;;
76608;SDS011;65928;53.936;27.540;2023-12-07T09:31:06;18.48;;;10.93;;
76608;SDS011;65928;53.936;27.540;2023-12-07T09:33:32;19.73;;;11.45;;
76608;SDS011;65928;53.936;27.540;2023-12-07T09:35:59;20.13;;;11.15;;
76608;SDS011;65928;53.936;27.540;2023-12-07T09:38:27;17.98;;;10.63;;
76608;SDS011;65928;53.936;27.540;2023-12-07T09:40:53;16.42;;;9.48;;
76608;SDS011;65928;53.936;27.540;2023-12-07T09:43:19;17.67;;;11.18;;
76608;SDS011;65928;53.936;27.540;2023-12-07T09:45:47;21.58;;;12.27;;
76608;SDS011;65928;53.936;27.540;2023-12-07T09:48:12;18.88;;;11.18;;
76608;SDS011;65928;53.936;27.540;2023-12-07T09:50:38;23.58;;;11.60;;
76608;SDS011;65928;53.936;27.540;2023-12-07T09:53:04;14.57;;;9.93;;
76608;SDS011;65928;53.936;27.540;2023-12-07T09:55:31;12.70;;;9.32;;
76608;SDS011;65928;53.936;27.540;2023-12-07T09:57:58;19.83;;;10.77;;
76608;SDS011;65928;53.936;27.540;2023-12-07T10:00:24;16.48;;;8.85;;
76608;SDS011;65928;53.936;27.540;2023-12-07T10:02:50;16.88;;;10.02;;
76608;SDS011;65928;53.936;27.540;2023-12-07T10:05:16;16.05;;;10.13;;
76608;SDS011;65928;53.936;27.540;2023-12-07T10:07:44;16.20;;;9.88;;
76608;SDS011;65928;53.936;27.540;2023-12-07T10:10:13;15.52;;;8.82;;
76608;SDS011;65928;53.936;27.540;2023-12-07T10:13:14;17.52;;;9.85;;
76608;SDS011;65928;53.936;27.540;2023-12-07T10:15:37;18.38;;;10.90;;
76608;SDS011;65928;53.936;27.540;2023-12-07T10:18:07;18.52;;;10.52;;
76608;SDS011;65928;53.936;27.540;2023-12-07T10:20:33;15.60;;;10.07;;
76608;SDS011;65928;53.936;27.540;2023-12-07T10:23:08;14.68;;;8.55;;
76608;SDS011;65928;53.936;27.540;2023-12-07T10:25:35;14.23;;;10.02;;
76608;SDS011;65928;53.936;27.540;2023-12-07T10:28:06;15.02;;;9.68;;
76608;SDS011;65928;53.936;27.540;2023-12-07T10:30:36;15.43;;;9.43;;
76608;SDS011;65928;53.936;27.540;2023-12-07T10:33:03;18.33;;;10.95;;
76608;SDS011;65928;53.936;27.540;2023-12-07T10:35:30;12.73;;;8.52;;
76608;SDS011;65928;53.936;27.540;2023-12-07T10:37:56;13.48;;;8.02;;
76608;SDS011;65928;53.936;27.540;2023-12-07T10:40:23;13.98;;;8.95;;
76608;SDS011;65928;53.936;27.540;2023-12-07T10:42:48;16.13;;;9.77;;
76608;SDS011;65928;53.936;27.540;2023-12-07T10:45:20;16.35;;;10.45;;
76608;SDS011;65928;53.936;27.540;2023-12-07T10:47:52;13.00;;;7.68;;
76608;SDS011;65928;53.936;27.540;2023-12-07T10:50:42;10.00;;;6.65;;
76608;SDS011;65928;53.936;27.540;2023-12-07T10:55:55;16.30;;;9.55;;
76608;SDS011;65928;53.936;27.540;2023-12-07T10:58:22;17.95;;;10.07;;
76608;SDS011;65928;53.936;27.540;2023-12-07T11:00:51;17.70;;;9.45;;
76608;SDS011;65928;53.936;27.540;2023-12-07T11:03:18;12.70;;;8.15;;
76608;SDS011;65928;53.936;27.540;2023-12-07T11:05:47;15.27;;;8.73;;
76608;SDS011;65928;53.936;27.540;2023-12-07T11:11:12;16.55;;;9.63;;
76608;SDS011;65928;53.936;27.540;2023-12-07T11:14:27;18.27;;;8.63;;
76608;SDS011;65928;53.936;27.540;2023-12-07T11:16:40;13.02;;;8.48;;
76608;SDS011;65928;53.936;27.540;2023-12-07T11:22:12;16.15;;;8.40;;
76608;SDS011;65928;53.936;27.540;2023-12-07T11:24:51;13.40;;;8.05;;
76608;SDS011;65928;53.936;27.540;2023-12-07T11:27:18;15.50;;;8.60;;
76608;SDS011;65928;53.936;27.540;2023-12-07T11:29:45;14.05;;;8.40;;
76608;SDS011;65928;53.936;27.540;2023-12-07T11:32:13;14.82;;;7.80;;
76608;SDS011;65928;53.936;27.540;2023-12-07T11:34:39;13.57;;;9.07;;
76608;SDS011;65928;53.936;27.540;2023-12-07T11:37:06;12.20;;;8.25;;
76608;SDS011;65928;53.936;27.540;2023-12-07T11:39:36;12.43;;;8.00;;
76608;SDS011;65928;53.936;27.540;2023-12-07T11:42:12;15.40;;;7.65;;
76608;SDS011;65928;53.936;27.540;2023-12-07T11:44:41;11.32;;;6.63;;
76608;SDS011;65928;53.936;27.540;2023-12-07T11:47:07;11.65;;;7.10;;
76608;SDS011;65928;53.936;27.540;2023-12-07T11:49:34;11.70;;;5.25;;
76608;SDS011;65928;53.936;27.540;2023-12-07T11:52:01;11.38;;;6.30;;
76608;SDS011;65928;53.936;27.540;2023-12-07T11:54:37;14.00;;;7.78;;
76608;SDS011;65928;53.936;27.540;2023-12-07T11:57:03;11.45;;;6.88;;
76608;SDS011;65928;53.936;27.540;2023-12-07T11:59:28;10.55;;;7.45;;
76608;SDS011;65928;53.936;27.540;2023-12-07T12:01:54;13.65;;;7.80;;
76608;SDS011;65928;53.936;27.540;2023-12-07T12:04:21;14.63;;;9.15;;
76608;SDS011;65928;53.936;27.540;2023-12-07T12:06:46;16.17;;;7.63;;
76608;SDS011;65928;53.936;27.540;2023-12-07T12:09:12;12.57;;;9.52;;
76608;SDS011;65928;53.936;27.540;2023-12-07T12:11:45;16.38;;;9.10;;
76608;SDS011;65928;53.936;27.540;2023-12-07T12:14:18;11.43;;;6.60;;
76608;SDS011;65928;53.936;27.540;2023-12-07T12:16:48;13.10;;;7.35;;
76608;SDS011;65928;53.936;27.540;2023-12-07T12:19:15;11.93;;;6.88;;
76608;SDS011;65928;53.936;27.540;2023-12-07T12:21:41;14.80;;;8.57;;
76608;SDS011;65928;53.936;27.540;2023-12-07T12:24:08;15.63;;;9.15;;
76608;SDS011;65928;53.936;27.540;2023-12-07T12:26:35;14.80;;;7.93;;
76608;SDS011;65928;53.936;27.540;2023-12-07T12:29:04;16.95;;;7.43;;
76608;SDS011;65928;53.936;27.540;2023-12-07T12:31:32;12.88;;;7.88;;
76608;SDS011;65928;53.936;27.540;2023-12-07T12:34:00;10.25;;;7.15;;
76608;SDS011;65928;53.936;27.540;2023-12-07T12:36:26;13.27;;;8.60;;
76608;SDS011;65928;53.936;27.540;2023-12-07T12:38:53;13.63;;;7.95;;
76608;SDS011;65928;53.936;27.540;2023-12-07T12:41:19;13.15;;;8.30;;
76608;SDS011;65928;53.936;27.540;2023-12-07T12:43:51;15.43;;;8.63;;
76608;SDS011;65928;53.936;27.540;2023-12-07T12:46:20;12.13;;;6.47;;
76608;SDS011;65928;53.936;27.540;2023-12-07T12:48:55;11.48;;;7.22;;
76608;SDS011;65928;53.936;27.540;2023-12-07T12:51:25;13.95;;;7.78;;
76608;SDS011;65928;53.936;27.540;2023-12-07T12:53:52;15.82;;;8.70;;
76608;SDS011;65928;53.936;27.540;2023-12-07T12:56:19;9.82;;;6.45;;
76608;SDS011;65928;53.936;27.540;2023-12-07T12:58:46;10.93;;;6.90;;
76608;SDS011;65928;53.936;27.540;2023-12-07T13:01:12;15.18;;;7.70;;
76608;SDS011;65928;53.936;27.540;2023-12-07T13:03:38;11.27;;;5.82;;
76608;SDS011;65928;53.936;27.540;2023-12-07T13:06:04;12.38;;;8.13;;
76608;SDS011;65928;53.936;27.540;2023-12-07T13:08:31;14.25;;;8.63;;
76608;SDS011;65928;53.936;27.540;2023-12-07T13:10:58;15.18;;;8.80;;
76608;SDS011;65928;53.936;27.540;2023-12-07T13:13:23;11.80;;;8.25;;
76608;SDS011;65928;53.936;27.540;2023-12-07T13:15:50;16.73;;;9.48;;
76608;SDS011;65928;53.936;27.540;2023-12-07T13:18:16;10.82;;;6.28;;
76608;SDS011;65928;53.936;27.540;2023-12-07T13:20:44;14.68;;;7.78;;
76608;SDS011;65928;53.936;27.540;2023-12-07T13:23:10;14.80;;;7.68;;
76608;SDS011;65928;53.936;27.540;2023-12-07T13:25:37;14.05;;;8.98;;
76608;SDS011;65928;53.936;27.540;2023-12-07T13:28:07;15.77;;;9.90;;
76608;SDS011;65928;53.936;27.540;2023-12-07T13:30:35;13.75;;;8.35;;
76608;SDS011;65928;53.936;27.540;2023-12-07T13:33:02;14.43;;;7.63;;
76608;SDS011;65928;53.936;27.540;2023-12-07T13:35:29;15.05;;;8.25;;
76608;SDS011;65928;53.936;27.540;2023-12-07T13:37:58;13.80;;;8.63;;
76608;SDS011;65928;53.936;27.540;2023-12-07T13:40:23;14.68;;;8.77;;
76608;SDS011;65928;53.936;27.540;2023-12-07T13:42:51;14.77;;;8.45;;
76608;SDS011;65928;53.936;27.540;2023-12-07T13:45:17;15.05;;;9.23;;
76608;SDS011;65928;53.936;27.540;2023-12-07T13:47:43;15.82;;;9.70;;
76608;SDS011;65928;53.936;27.540;2023-12-07T13:50:09;16.80;;;9.88;;
76608;SDS011;65928;53.936;27.540;2023-12-07T13:52:37;16.15;;;9.25;;
76608;SDS011;65928;53.936;27.540;2023-12-07T13:55:03;14.88;;;8.85;;
76608;SDS011;65928;53.936;27.540;2023-12-07T13:57:29;15.43;;;9.10;;
76608;SDS011;65928;53.936;27.540;2023-12-07T13:59:55;15.95;;;9.35;;
76608;SDS011;65928;53.936;27.540;2023-12-07T14:02:21;14.50;;;7.78;;
76608;SDS011;65928;53.936;27.540;2023-12-07T14:04:47;12.40;;;8.10;;
76608;SDS011;65928;53.936;27.540;2023-12-07T14:07:15;18.13;;;10.32;;
76608;SDS011;65928;53.936;27.540;2023-12-07T14:09:49;16.73;;;8.70;;
76608;SDS011;65928;53.936;27.540;2023-12-07T14:12:17;17.15;;;8.70;;
76608;SDS011;65928;53.936;27.540;2023-12-07T14:14:43;14.13;;;8.90;;
76608;SDS011;65928;53.936;27.540;2023-12-07T14:17:10;17.75;;;9.38;;
76608;SDS011;65928;53.936;27.540;2023-12-07T14:19:36;14.38;;;8.32;;
76608;SDS011;65928;53.936;27.540;2023-12-07T14:22:14;16.75;;;10.48;;
76608;SDS011;65928;53.936;27.540;2023-12-07T14:24:40;18.35;;;10.18;;
76608;SDS011;65928;53.936;27.540;2023-12-07T14:27:06;16.55;;;10.18;;